Time;durP1;ratioP1;P1;durP2;ratioP2;P2;SDS_P1;SDS_P2;PMS_P1;PMS_P2;Temp;Humidity;BMP_temperature;BMP_pressure;BME280_temperature;BME280_humidity;BME280_pressure;Samples;Min_cycle;Max_cycle;Signal;HPM_P1;HPM_P2
2023/03/06 00:02:21;;;;;;;8.07;5.68;;;;;;;0.92;100.00;100836.91;5053816;28;20025;-51
2023/03/06 00:04:47;;;;;;;6.10;5.15;;;;;;;0.83;100.00;100842.88;5052742;28;20025;-48
2023/03/06 00:07:12;;;;;;;8.60;5.68;;;;;;;0.64;100.00;100811.66;5052946;28;20052;-48
2023/03/06 00:09:37;;;;;;;9.75;5.40;;;;;;;0.72;100.00;100833.31;5054536;28;20037;-49
2023/03/06 00:12:03;;;;;;;7.60;5.45;;;;;;;0.46;100.00;100800.31;5052907;28;20041;-52
2023/03/06 00:14:28;;;;;;;8.60;6.25;;;;;;;0.68;100.00;100834.13;5054514;28;20041;-52
2023/03/06 00:16:57;;;;;;;10.60;6.55;;;;;;;0.10;100.00;100740.47;5054537;28;20033;-49
2023/03/06 00:19:22;;;;;;;8.32;6.32;;;;;;;0.38;100.00;100783.81;5035789;28;20479;-51
2023/03/06 00:21:48;;;;;;;8.00;6.35;;;;;;;0.60;100.00;100831.50;5052031;28;20075;-48
2023/03/06 00:24:14;;;;;;;10.82;7.70;;;;;;;0.68;100.00;100834.13;5052437;28;20033;-48
2023/03/06 00:26:40;;;;;;;10.65;7.65;;;;;;;0.22;100.00;100732.81;5053917;28;20110;-49
2023/03/06 00:29:06;;;;;;;10.63;7.55;;;;;;;0.27;100.00;100733.69;5054226;28;20043;-54
2023/03/06 00:31:32;;;;;;;13.75;7.00;;;;;;;0.20;100.00;100718.13;5053771;28;20075;-49
2023/03/06 00:33:57;;;;;;;10.88;6.53;;;;;;;0.71;100.00;100803.06;5053788;28;20065;-50
2023/03/06 00:36:23;;;;;;;13.45;7.30;;;;;;;0.64;100.00;100791.81;5053878;28;20136;-53
2023/03/06 00:38:48;;;;;;;10.35;6.90;;;;;;;0.79;100.00;100801.41;5052304;28;20044;-50
2023/03/06 00:41:13;;;;;;;10.02;7.25;;;;;;;0.86;100.00;100796.25;5053385;28;20055;-50
2023/03/06 00:43:39;;;;;;;11.30;6.70;;;;;;;0.93;100.00;100799.78;5053884;28;20114;-50
2023/03/06 00:46:04;;;;;;;11.02;7.30;;;;;;;0.84;100.00;100753.94;5052215;28;20033;-52
2023/03/06 00:48:33;;;;;;;8.98;6.53;;;;;;;0.95;100.00;100762.63;5053084;28;20472;-49
2023/03/06 00:50:58;;;;;;;11.65;5.85;;;;;;;0.85;100.00;100703.84;5053235;28;20063;-51
2023/03/06 00:53:23;;;;;;;10.02;5.88;;;;;;;1.34;100.00;100756.78;5051941;28;20430;-49
2023/03/06 00:55:50;;;;;;;8.32;4.78;;;;;;;1.12;100.00;100688.41;5051799;28;20041;-49
2023/03/06 00:58:16;;;;;;;10.90;5.38;;;;;;;1.21;100.00;100692.75;5052941;28;20040;-50
2023/03/06 01:00:41;;;;;;;7.80;3.92;;;;;;;1.74;100.00;100765.50;5052039;28;20085;-50
2023/03/06 01:03:07;;;;;;;7.18;3.75;;;;;;;1.69;100.00;100747.31;5053125;28;20032;-49
2023/03/06 01:05:34;;;;;;;5.82;2.92;;;;;;;1.81;100.00;100777.63;5035013;28;20044;-54
2023/03/06 01:07:59;;;;;;;4.90;2.97;;;;;;;1.28;100.00;100675.50;5051599;28;20021;-53
2023/03/06 01:10:26;;;;;;;7.43;3.10;;;;;;;1.30;100.00;100691.91;5041842;28;20481;-50
2023/03/06 01:12:51;;;;;;;4.65;3.20;;;;;;;1.50;100.00;100735.19;5048326;28;20034;-54
2023/03/06 01:15:17;;;;;;;7.18;3.22;;;;;;;1.55;100.00;100751.63;5031771;28;20044;-52
2023/03/06 01:17:43;;;;;;;3.72;2.60;;;;;;;1.40;100.00;100748.97;5032815;28;20072;-50
2023/03/06 01:20:14;;;;;;;5.50;3.17;;;;;;;1.05;100.00;100711.72;5031969;28;20072;-53
2023/03/06 01:22:39;;;;;;;6.68;2.60;;;;;;;1.13;100.00;100742.00;5032569;28;20087;-51
2023/03/06 01:25:05;;;;;;;6.10;2.42;;;;;;;1.15;100.00;100752.34;5032653;28;20034;-52
2023/03/06 01:27:30;;;;;;;5.10;2.50;;;;;;;1.13;100.00;100759.25;5050071;28;20037;-49
2023/03/06 01:29:55;;;;;;;4.88;2.67;;;;;;;1.05;100.00;100763.56;5052798;28;20100;-51
2023/03/06 01:32:21;;;;;;;3.15;2.47;;;;;;;1.07;100.00;100752.31;5052023;28;20443;-51
2023/03/06 01:34:46;;;;;;;6.95;2.75;;;;;;;1.11;100.00;100754.06;5053101;28;20456;-53
2023/03/06 01:37:12;;;;;;;4.82;2.95;;;;;;;0.64;100.00;100679.56;5052663;28;20114;-49
2023/03/06 01:39:37;;;;;;;8.02;3.22;;;;;;;0.97;100.00;100757.44;5050961;28;20048;-50
2023/03/06 01:42:03;;;;;;;4.28;2.90;;;;;;;0.92;100.00;100725.47;5051161;28;20464;-49
2023/03/06 01:44:29;;;;;;;6.35;2.67;;;;;;;0.60;100.00;100670.91;5034441;28;20032;-49
2023/03/06 01:46:54;;;;;;;6.57;2.55;;;;;;;0.93;100.00;100735.84;5049487;28;20036;-49
2023/03/06 01:49:33;;;;;;;5.20;2.88;;;;;;;0.54;100.00;100661.38;5051839;28;20109;-51
2023/03/06 01:52:04;;;;;;;5.45;2.65;;;;;;;0.53;100.00;100664.81;5052042;28;20029;-49
2023/03/06 01:54:41;;;;;;;4.38;2.83;;;;;;;0.95;100.00;100739.31;5050565;28;20484;-48
2023/03/06 01:57:34;;;;;;;2.88;2.50;;;;;;;1.01;100.00;100736.75;5052257;28;20029;-51
2023/03/06 02:00:22;;;;;;;4.85;2.55;;;;;;;0.54;100.00;100655.34;5048803;28;20048;-49
2023/03/06 02:02:54;;;;;;;4.68;2.28;;;;;;;1.01;100.00;100728.97;5050470;28;20430;-51
2023/03/06 02:05:19;;;;;;;6.80;2.13;;;;;;;0.86;100.00;100700.38;5051057;28;20108;-51
2023/03/06 02:07:45;;;;;;;6.75;2.47;;;;;;;0.89;100.00;100697.81;5050831;28;20063;-51
2023/03/06 02:10:11;;;;;;;4.00;1.95;;;;;;;0.66;100.00;100641.56;5051473;28;20051;-49
2023/03/06 02:12:39;;;;;;;4.03;1.90;;;;;;;0.83;100.00;100645.97;5049937;28;20593;-50
2023/03/06 02:15:05;;;;;;;2.78;1.92;;;;;;;0.91;100.00;100627.84;5050175;28;20098;-50
2023/03/06 02:17:33;;;;;;;1.98;1.77;;;;;;;1.11;100.00;100636.53;5049061;28;20532;-51
2023/03/06 02:20:01;;;;;;;3.78;1.60;;;;;;;1.54;100.00;100699.75;5050375;28;20430;-51
2023/03/06 02:22:36;;;;;;;4.20;2.20;;;;;;;1.68;100.00;100708.41;5051736;28;20463;-50
2023/03/06 02:25:27;;;;;;;4.13;2.05;;;;;;;1.77;100.00;100700.66;5050386;28;20432;-49
2023/03/06 02:27:52;;;;;;;2.43;1.47;;;;;;;0.98;100.00;100560.50;5051868;28;20044;-50
2023/03/06 02:30:18;;;;;;;5.22;1.88;;;;;;;1.50;100.00;100634.03;5051773;28;20033;-51
2023/03/06 02:32:43;;;;;;;5.22;1.40;;;;;;;1.51;100.00;100620.22;5050586;28;20044;-55
2023/03/06 02:35:17;;;;;;;3.53;1.23;;;;;;;1.95;100.00;100692.88;5049968;28;20036;-53
2023/03/06 02:37:42;;;;;;;4.68;1.45;;;;;;;1.50;100.00;100592.53;5051525;28;20112;-53
2023/03/06 02:40:11;;;;;;;3.00;1.45;;;;;;;1.99;100.00;100672.94;5050383;28;20100;-52
2023/03/06 02:42:37;;;;;;;5.32;1.65;;;;;;;1.97;100.00;100669.50;5050475;28;20167;-52
2023/03/06 02:45:04;;;;;;;2.40;1.30;;;;;;;1.93;100.00;100670.34;5049175;28;20119;-52
2023/03/06 02:47:30;;;;;;;4.63;1.60;;;;;;;1.38;100.00;100570.91;5033317;28;20029;-52
2023/03/06 02:49:55;;;;;;;4.10;1.30;;;;;;;1.90;100.00;100679.00;5049724;28;20035;-50
2023/03/06 02:52:20;;;;;;;2.15;1.55;;;;;;;1.46;100.00;100585.59;5049867;28;20045;-48
2023/03/06 02:54:46;;;;;;;5.47;1.50;;;;;;;1.88;100.00;100649.59;5051559;28;20032;-50
2023/03/06 02:57:11;;;;;;;4.55;1.75;;;;;;;1.81;100.00;100649.63;5033473;28;20344;-52
2023/03/06 02:59:36;;;;;;;3.63;1.23;;;;;;;1.70;100.00;100621.06;5050272;28;20025;-49
2023/03/06 03:02:02;;;;;;;3.67;1.40;;;;;;;1.81;100.00;100647.03;5051410;28;20043;-52
2023/03/06 03:04:27;;;;;;;5.32;1.48;;;;;;;1.79;100.00;100622.78;5051168;28;20030;-51
2023/03/06 03:06:52;;;;;;;2.75;1.80;;;;;;;1.95;100.00;100632.31;5048668;28;20062;-50
2023/03/06 03:09:18;;;;;;;3.00;1.70;;;;;;;1.86;100.00;100606.34;5051083;28;20460;-50
2023/03/06 03:11:43;;;;;;;5.95;2.22;;;;;;;2.09;100.00;100640.94;5051397;28;20427;-48
2023/03/06 03:14:08;;;;;;;4.50;1.80;;;;;;;2.24;100.00;100648.72;5049918;28;20045;-48
2023/03/06 03:16:34;;;;;;;3.60;1.80;;;;;;;1.89;100.00;100576.09;5050914;28;20467;-48
2023/03/06 03:18:59;;;;;;;5.60;2.67;;;;;;;2.33;100.00;100642.63;5050981;28;20140;-47
2023/03/06 03:21:24;;;;;;;4.47;2.20;;;;;;;1.89;100.00;100563.09;5049910;28;20144;-52
2023/03/06 03:23:50;;;;;;;6.07;2.22;;;;;;;1.85;100.00;100552.72;5050967;28;20119;-50
2023/03/06 03:26:18;;;;;;;1.98;1.65;;;;;;;2.08;100.00;100580.34;5049973;28;20380;-50
2023/03/06 03:28:44;;;;;;;4.45;1.85;;;;;;;2.44;100.00;100633.06;5051069;28;20471;-50
2023/03/06 03:31:10;;;;;;;5.68;3.25;;;;;;;2.51;100.00;100630.44;5050636;28;20103;-51
2023/03/06 03:33:35;;;;;;;3.30;1.55;;;;;;;2.13;100.00;100557.84;5050769;28;20408;-49
2023/03/06 03:36:03;;;;;;;3.47;1.58;;;;;;;2.46;100.00;100605.34;5051052;28;20029;-51
2023/03/06 03:38:28;;;;;;;2.75;1.80;;;;;;;2.59;100.00;100614.84;5048841;28;20120;-50
2023/03/06 03:40:54;;;;;;;4.07;1.73;;;;;;;2.14;100.00;100533.59;5030628;28;20112;-50
2023/03/06 03:43:19;;;;;;;2.25;1.50;;;;;;;2.24;100.00;100553.50;5029978;28;20378;-51
2023/03/06 03:45:44;;;;;;;3.50;1.95;;;;;;;2.22;100.00;100544.81;5031291;28;20486;-50
2023/03/06 03:48:10;;;;;;;5.40;1.95;;;;;;;2.60;100.00;100603.56;5031196;28;20042;-51
2023/03/06 03:50:35;;;;;;;3.83;1.73;;;;;;;2.09;100.00;100513.72;5030510;28;20041;-51
2023/03/06 03:53:01;;;;;;;8.27;2.60;;;;;;;2.60;100.00;100606.16;5031083;28;20055;-50
2023/03/06 03:55:26;;;;;;;6.35;1.90;;;;;;;2.15;100.00;100516.31;5036760;28;20123;-52
2023/03/06 03:57:52;;;;;;;5.30;1.63;;;;;;;2.63;100.00;100587.97;5054609;28;20037;-52
2023/03/06 04:00:17;;;;;;;4.20;1.90;;;;;;;2.59;100.00;100578.47;5054072;28;20037;-50
2023/03/06 04:02:44;;;;;;;2.75;1.80;;;;;;;2.65;100.00;100594.03;5054196;28;20064;-52
2023/03/06 04:05:13;;;;;;;2.92;1.70;;;;;;;2.67;100.00;100600.94;5054491;28;20044;-51
2023/03/06 04:07:39;;;;;;;5.18;1.73;;;;;;;2.49;100.00;100537.78;5054078;28;20040;-50
2023/03/06 04:10:06;;;;;;;1.50;1.17;;;;;;;2.28;100.00;100498.97;5053187;28;20037;-51
2023/03/06 04:12:31;;;;;;;7.13;1.75;;;;;;;2.37;100.00;100501.47;5053126;28;20431;-48
2023/03/06 04:14:57;;;;;;;2.83;1.30;;;;;;;2.73;100.00;100564.53;5054146;28;20033;-51
2023/03/06 04:17:22;;;;;;;12.00;2.97;;;;;;;2.81;100.00;100577.47;5053970;28;20052;-51
2023/03/06 04:19:47;;;;;;;4.22;1.50;;;;;;;2.44;100.00;100513.59;5053996;28;20136;-54
2023/03/06 04:22:13;;;;;;;4.88;1.75;;;;;;;2.92;100.00;100593.03;5053849;28;20151;-52
2023/03/06 04:24:38;;;;;;;3.80;1.77;;;;;;;2.63;100.00;100538.59;5053429;28;20384;-53
2023/03/06 04:27:04;;;;;;;5.47;1.50;;;;;;;2.72;100.00;100561.94;5052364;28;20029;-50
2023/03/06 04:29:29;;;;;;;3.25;1.40;;;;;;;2.96;100.00;100606.00;5053996;28;20032;-52
2023/03/06 04:31:54;;;;;;;6.45;2.00;;;;;;;2.92;100.00;100612.09;5053814;28;20163;-49
2023/03/06 04:34:20;;;;;;;3.58;1.90;;;;;;;2.89;100.00;100570.50;5052276;28;20194;-52
2023/03/06 04:36:45;;;;;;;4.25;2.22;;;;;;;2.75;100.00;100551.53;5053583;28;20033;-52
2023/03/06 04:39:11;;;;;;;7.88;2.22;;;;;;;2.40;100.00;100480.69;5052279;28;20473;-50
2023/03/06 04:41:37;;;;;;;4.53;2.10;;;;;;;2.46;100.00;100504.03;5052022;28;20033;-49
2023/03/06 04:44:03;;;;;;;6.55;2.67;;;;;;;2.77;100.00;100544.59;5053521;28;20045;-48
2023/03/06 04:46:28;;;;;;;8.40;2.42;;;;;;;2.38;100.00;100485.03;5053423;28;20120;-52
2023/03/06 04:48:53;;;;;;;4.25;2.92;;;;;;;2.36;100.00;100490.25;5052909;28;20087;-49
2023/03/06 04:51:19;;;;;;;5.10;2.70;;;;;;;2.39;100.00;100499.75;5053234;28;20095;-50
2023/03/06 04:53:44;;;;;;;6.47;2.55;;;;;;;2.80;100.00;100560.19;5053109;28;20136;-52
2023/03/06 04:56:09;;;;;;;2.90;2.50;;;;;;;2.78;100.00;100557.56;5053408;28;20041;-53
2023/03/06 04:58:35;;;;;;;3.80;3.13;;;;;;;2.71;100.00;100535.09;5052003;28;20052;-48
2023/03/06 05:01:00;;;;;;;7.22;2.92;;;;;;;2.49;100.00;100491.91;5051729;28;20507;-48
2023/03/06 05:03:25;;;;;;;4.40;3.30;;;;;;;2.88;100.00;100549.72;5051856;28;20075;-51
2023/03/06 05:05:51;;;;;;;5.90;3.03;;;;;;;2.53;100.00;100500.56;5051502;28;20036;-48
2023/03/06 05:08:17;;;;;;;8.65;3.33;;;;;;;2.62;100.00;100529.09;5051839;28;20040;-52
2023/03/06 05:10:43;;;;;;;6.20;2.70;;;;;;;2.38;100.00;100492.84;5053175;28;20083;-49
2023/03/06 05:13:08;;;;;;;6.00;2.90;;;;;;;2.65;100.00;100534.28;5053279;28;20480;-53
2023/03/06 05:15:33;;;;;;;5.43;3.20;;;;;;;2.74;100.00;100547.22;5051521;28;20033;-49
2023/03/06 05:17:59;;;;;;;6.40;3.35;;;;;;;2.44;100.00;100495.41;5051444;28;20460;-50
2023/03/06 05:20:24;;;;;;;5.50;3.30;;;;;;;2.73;100.00;100556.75;5052789;28;20029;-48
2023/03/06 05:22:50;;;;;;;4.43;3.05;;;;;;;2.35;100.00;100483.31;5052453;28;20116;-48
2023/03/06 05:25:15;;;;;;;5.03;3.08;;;;;;;2.60;100.00;100510.91;5052537;28;20064;-48
2023/03/06 05:27:41;;;;;;;3.70;2.20;;;;;;;2.83;100.00;100547.16;5051084;28;20036;-48
2023/03/06 05:30:09;;;;;;;6.43;2.00;;;;;;;2.86;100.00;100543.69;5051510;28;20040;-48
2023/03/06 05:32:34;;;;;;;3.75;1.58;;;;;;;2.93;100.00;100558.34;5050989;28;20111;-49
2023/03/06 05:34:59;;;;;;;1.20;0.90;;;;;;;2.94;100.00;100580.91;5052426;28;20464;-49
2023/03/06 05:37:25;;;;;;;3.83;0.90;;;;;;;2.98;100.00;100559.22;5052392;28;20494;-51
2023/03/06 05:39:50;;;;;;;2.75;1.00;;;;;;;2.57;100.00;100484.09;5052302;28;20095;-51
2023/03/06 05:42:17;;;;;;;2.33;0.95;;;;;;;2.55;100.00;100480.63;5052286;28;20064;-50
2023/03/06 05:44:42;;;;;;;3.38;1.38;;;;;;;2.94;100.00;100554.91;5051191;28;20364;-48
2023/03/06 05:47:08;;;;;;;3.30;0.75;;;;;;;2.91;100.00;100549.72;5051158;28;20033;-52
2023/03/06 05:49:34;;;;;;;4.90;1.10;;;;;;;2.46;100.00;100480.66;5052169;28;20128;-49
2023/03/06 05:52:02;;;;;;;4.88;1.23;;;;;;;2.86;100.00;100548.88;5052347;28;20033;-52
2023/03/06 05:54:28;;;;;;;5.68;1.10;;;;;;;2.80;100.00;100542.00;5050854;28;20033;-50
2023/03/06 05:56:56;;;;;;;3.17;0.95;;;;;;;2.41;100.00;100467.72;5052144;28;20049;-48
2023/03/06 05:59:22;;;;;;;3.65;0.90;;;;;;;2.78;100.00;100528.13;5050493;28;20032;-51
2023/03/06 06:01:47;;;;;;;1.58;1.00;;;;;;;2.86;100.00;100541.09;5052042;28;20041;-49
2023/03/06 06:04:13;;;;;;;1.33;0.98;;;;;;;2.43;100.00;100471.16;5051795;28;20338;-52
2023/03/06 06:06:38;;;;;;;4.63;1.13;;;;;;;2.79;100.00;100535.06;5033246;28;20400;-51
2023/03/06 06:09:03;;;;;;;1.85;0.95;;;;;;;2.76;100.00;100540.28;5052018;28;20041;-49
2023/03/06 06:11:28;;;;;;;6.68;1.08;;;;;;;2.37;100.00;100491.97;5051738;28;20136;-52
2023/03/06 06:13:54;;;;;;;5.07;1.10;;;;;;;2.31;100.00;100480.75;5051760;28;20408;-52
2023/03/06 06:16:19;;;;;;;2.38;0.98;;;;;;;2.59;100.00;100531.69;5050250;28;20045;-52
2023/03/06 06:18:45;;;;;;;5.00;1.30;;;;;;;2.62;100.00;100542.09;5051450;28;20045;-48
2023/03/06 06:21:13;;;;;;;8.70;1.85;;;;;;;2.13;100.00;100466.97;5051405;28;20033;-53
2023/03/06 06:23:38;;;;;;;3.65;1.38;;;;;;;2.32;100.00;100506.72;5050286;28;20060;-50
2023/03/06 06:26:06;;;;;;;4.60;1.70;;;;;;;2.54;100.00;100546.47;5051700;28;20479;-51
2023/03/06 06:28:32;;;;;;;8.32;1.48;;;;;;;2.51;100.00;100539.50;5051618;28;20041;-49
2023/03/06 06:30:58;;;;;;;3.47;1.42;;;;;;;2.12;100.00;100470.44;5045697;28;20195;-49
2023/03/06 06:33:23;;;;;;;2.45;1.30;;;;;;;2.54;100.00;100542.09;5033225;28;20480;-50
2023/03/06 06:35:49;;;;;;;16.85;1.85;;;;;;;2.13;100.00;100471.31;5036710;28;20112;-50
2023/03/06 06:38:14;;;;;;;5.00;1.73;;;;;;;2.60;100.00;100542.06;5051483;28;20473;-47
2023/03/06 06:40:39;;;;;;;3.58;2.28;;;;;;;2.21;100.00;100480.81;5050680;28;20045;-47
2023/03/06 06:43:05;;;;;;;2.20;2.00;;;;;;;2.61;100.00;100551.59;5051119;28;20044;-50
2023/03/06 06:45:30;;;;;;;5.43;2.65;;;;;;;2.59;100.00;100545.56;5051235;28;20491;-51
2023/03/06 06:47:55;;;;;;;6.95;3.13;;;;;;;2.53;100.00;100530.00;5041410;28;20128;-52
2023/03/06 06:50:21;;;;;;;4.55;3.00;;;;;;;2.61;100.00;100550.75;5049140;28;20086;-50
2023/03/06 06:52:46;;;;;;;6.22;2.55;;;;;;;2.56;100.00;100548.19;5051033;28;20037;-49
2023/03/06 06:55:13;;;;;;;6.97;2.50;;;;;;;2.36;100.00;100524.03;5046495;28;20127;-51
2023/03/06 06:57:39;;;;;;;5.88;2.60;;;;;;;2.30;100.00;100517.97;5031411;28;20531;-51
2023/03/06 07:00:05;;;;;;;4.80;2.80;;;;;;;2.53;100.00;100571.56;5046659;28;20032;-49
2023/03/06 07:02:31;;;;;;;7.05;2.85;;;;;;;2.51;100.00;100546.47;5050933;28;20380;-50
2023/03/06 07:04:57;;;;;;;4.18;2.83;;;;;;;2.08;100.00;100473.91;5048547;28;20044;-49
2023/03/06 07:07:22;;;;;;;5.40;2.67;;;;;;;2.52;100.00;100550.78;5049408;28;20041;-51
2023/03/06 07:09:47;;;;;;;6.90;3.13;;;;;;;2.14;100.00;100497.25;5050946;28;20043;-51
2023/03/06 07:12:13;;;;;;;5.13;2.60;;;;;;;2.18;100.00;100511.97;5031368;28;20033;-51
2023/03/06 07:14:40;;;;;;;3.90;2.58;;;;;;;1.90;100.00;100452.38;5030399;28;20046;-50
2023/03/06 07:17:05;;;;;;;7.57;4.93;;;;;;;2.61;100.00;100545.53;5030959;28;20033;-51
2023/03/06 07:19:31;;;;;;;6.90;4.00;;;;;;;2.53;100.00;100524.81;5029688;28;20111;-51
2023/03/06 07:21:57;;;;;;;5.78;3.50;;;;;;;2.70;100.00;100548.09;5077094;28;20091;-52
2023/03/06 07:24:22;;;;;;;8.75;4.38;;;;;;;2.74;100.00;100549.81;5050856;28;20064;-52
2023/03/06 07:26:47;;;;;;;9.45;4.60;;;;;;;2.81;100.00;100547.16;5050819;28;20029;-49
2023/03/06 07:29:14;;;;;;;6.28;4.38;;;;;;;2.86;100.00;100544.53;5048308;28;20029;-47
2023/03/06 07:31:39;;;;;;;8.48;4.60;;;;;;;3.04;100.00;100551.34;5051285;28;20029;-52
2023/03/06 07:34:05;;;;;;;10.38;5.75;;;;;;;2.70;100.00;100465.81;5053347;28;20131;-53
2023/03/06 07:36:31;;;;;;;10.57;4.20;;;;;;;2.90;100.00;100467.38;5039807;28;20120;-49
2023/03/06 07:38:56;;;;;;;8.57;3.70;;;;;;;3.47;100.00;100544.13;5025197;28;20536;-48
2023/03/06 07:41:21;;;;;;;7.50;3.83;;;;;;;3.39;100.00;100502.53;5034403;28;20052;-49
2023/03/06 07:43:47;;;;;;;7.20;4.03;;;;;;;3.75;100.00;100541.25;5033122;28;20037;-48
2023/03/06 07:46:13;;;;;;;6.80;3.30;;;;;;;3.94;100.00;100539.34;5034197;28;20049;-47
2023/03/06 07:48:38;;;;;;;4.80;2.50;;;;;;;4.00;100.00;100534.03;5040102;28;20118;-48
2023/03/06 07:51:06;;;;;;;5.32;2.35;;;;;;;3.62;100.00;100474.56;5052342;28;20044;-48
2023/03/06 07:53:32;;;;;;;7.15;2.78;;;;;;;3.69;100.00;100470.16;5017415;28;20030;-51
2023/03/06 07:55:57;;;;;;;5.82;3.00;;;;;;;4.15;100.00;100551.25;5053860;28;20044;-53
2023/03/06 07:58:23;;;;;;;7.22;2.80;;;;;;;4.19;100.00;100539.94;5053418;28;20037;-50
2023/03/06 08:00:49;;;;;;;9.35;2.50;;;;;;;4.21;100.00;100551.19;5045565;28;20381;-54
2023/03/06 08:03:15;;;;;;;4.38;1.80;;;;;;;4.13;100.00;100500.91;5067473;28;20029;-52
2023/03/06 08:05:40;;;;;;;5.47;2.00;;;;;;;4.40;100.00;100552.72;5051574;28;20376;-49
2023/03/06 08:08:06;;;;;;;4.07;2.33;;;;;;;4.39;100.00;100535.34;5047683;28;20116;-51
2023/03/06 08:10:31;;;;;;;7.30;2.17;;;;;;;4.33;100.00;100486.78;5030703;28;20069;-52
2023/03/06 08:12:56;;;;;;;4.70;2.15;;;;;;;4.70;100.00;100528.00;5048920;28;20069;-49
2023/03/06 08:15:22;;;;;;;6.57;2.10;;;;;;;4.77;100.00;100538.31;5031529;28;20045;-48
2023/03/06 08:17:48;;;;;;;4.50;1.60;;;;;;;4.88;100.00;100539.03;5033310;28;20041;-52
2023/03/06 08:20:13;;;;;;;3.95;1.65;;;;;;;5.12;100.00;100556.06;5046934;28;20565;-53
2023/03/06 08:22:39;;;;;;;4.00;1.70;;;;;;;5.03;100.00;100496.22;5052561;28;20033;-53
2023/03/06 08:25:05;;;;;;;4.90;1.55;;;;;;;4.96;100.00;100481.56;5052896;28;20082;-51
2023/03/06 08:27:32;;;;;;;7.88;2.10;;;;;;;5.39;100.00;100528.69;5044652;28;20049;-50
2023/03/06 08:29:57;;;;;;;2.72;1.40;;;;;;;5.23;100.00;100494.16;5032990;28;20025;-49
2023/03/06 08:32:23;;;;;;;2.50;1.70;;;;;;;5.54;100.00;100554.56;5055407;28;20447;-53
2023/03/06 08:34:48;;;;;;;2.47;1.10;;;;;;;5.42;100.00;100506.03;5072822;28;20045;-52
2023/03/06 08:37:13;;;;;;;5.43;1.10;;;;;;;5.43;100.00;100506.91;5060720;28;20138;-49
2023/03/06 08:39:39;;;;;;;2.50;1.25;;;;;;;5.96;100.00;100573.88;5052099;28;20148;-47
2023/03/06 08:42:04;;;;;;;6.63;1.20;;;;;;;5.70;100.00;100516.84;5053656;28;20056;-52
2023/03/06 08:44:29;;;;;;;5.60;1.50;;;;;;;5.94;100.00;100557.38;5052207;28;20510;-52
2023/03/06 08:46:55;;;;;;;8.85;2.08;;;;;;;6.17;100.00;100587.41;5051142;28;20067;-49
2023/03/06 08:49:20;;;;;;;3.78;1.50;;;;;;;5.82;100.00;100527.06;5044168;28;20056;-48
2023/03/06 08:51:46;;;;;;;3.97;1.40;;;;;;;6.31;100.00;100586.28;5053580;28;20041;-52
2023/03/06 08:54:12;;;;;;;5.72;1.60;;;;;;;6.41;100.00;100587.84;5053474;28;20037;-50
2023/03/06 08:56:38;;;;;;;3.33;1.00;;;;;;;6.04;100.00;100498.84;5059597;28;20446;-51
2023/03/06 08:59:04;;;;;;;6.45;1.50;;;;;;;6.55;100.00;100581.47;5059086;28;20124;-53
2023/03/06 09:01:32;;;;;;;1.65;0.80;;;;;;;6.25;100.00;100511.47;5051302;28;20037;-49
2023/03/06 09:03:59;;;;;;;3.60;1.42;;;;;;;6.63;100.00;100594.38;5050497;28;20119;-53
2023/03/06 09:06:26;;;;;;;4.60;1.55;;;;;;;6.15;100.00;100516.03;5052765;28;20484;-53
2023/03/06 09:08:52;;;;;;;7.82;1.73;;;;;;;6.38;100.00;100561.75;5053381;28;20020;-53
2023/03/06 09:11:19;;;;;;;4.22;1.27;;;;;;;6.75;100.00;100584.53;5060832;28;20043;-50
2023/03/06 09:13:44;;;;;;;6.22;1.58;;;;;;;6.47;100.00;100507.53;5056690;28;20033;-50
2023/03/06 09:16:10;;;;;;;6.88;1.70;;;;;;;6.30;100.00;100495.72;5055050;28;20039;-52
2023/03/06 09:18:36;;;;;;;6.18;1.50;;;;;;;6.46;100.00;100518.88;5062075;28;20136;-49
2023/03/06 09:21:02;;;;;;;5.13;1.30;;;;;;;6.39;100.00;100522.50;5051477;28;20037;-47
2023/03/06 09:23:28;;;;;;;5.32;2.15;;;;;;;6.65;100.00;100561.22;5068370;28;20043;-52
2023/03/06 09:25:55;;;;;;;4.15;1.65;;;;;;;6.65;100.00;100556.84;5061363;28;20112;-50
2023/03/06 09:28:20;;;;;;;3.75;1.13;;;;;;;6.21;100.00;100484.56;5051592;28;20151;-52
2023/03/06 09:30:46;;;;;;;5.47;1.88;;;;;;;6.53;100.00;100524.84;5052924;28;20465;-49
2023/03/06 09:33:11;;;;;;;6.47;2.17;;;;;;;6.49;100.00;100507.50;5050879;28;20041;-53
2023/03/06 09:35:51;;;;;;;5.32;2.30;;;;;;;6.83;100.00;100584.34;5064761;28;20035;-51
2023/03/06 09:38:17;;;;;;;8.85;2.70;;;;;;;6.36;100.00;100514.75;5052926;28;20043;-56
2023/03/06 09:40:59;;;;;;;10.60;3.17;;;;;;;6.66;100.00;100579.47;5059257;28;20480;-54
2023/03/06 09:43:45;;;;;;;5.32;2.30;;;;;;;6.12;100.00;100502.16;5053188;28;20033;-51
2023/03/06 09:46:28;;;;;;;3.85;2.22;;;;;;;6.47;100.00;100574.66;5071191;28;20033;-52
2023/03/06 09:49:09;;;;;;;2.72;1.73;;;;;;;6.39;100.00;100556.50;5052011;28;20352;-48
2023/03/06 09:51:59;;;;;;;3.67;1.67;;;;;;;5.95;100.00;100512.09;5061863;28;20035;-47
2023/03/06 09:54:41;;;;;;;3.45;1.80;;;;;;;6.26;100.00;100572.44;5041808;28;20040;-49
2023/03/06 09:57:18;;;;;;;4.50;2.47;;;;;;;5.97;100.00;100515.50;5031717;28;20068;-52
2023/03/06 09:59:47;;;;;;;6.10;2.22;;;;;;;6.41;100.00;100564.31;5066276;28;20040;-50
2023/03/06 10:02:16;;;;;;;1.98;1.20;;;;;;;6.61;100.00;100563.03;5048395;28;20037;-49
2023/03/06 10:04:45;;;;;;;8.38;1.52;;;;;;;6.87;100.00;100583.41;5051575;28;20113;-53
2023/03/06 10:07:19;;;;;;;3.80;1.70;;;;;;;6.71;100.00;100496.53;5046532;28;20163;-52
2023/03/06 10:09:47;;;;;;;5.13;2.30;;;;;;;7.27;100.00;100563.28;5030660;28;20465;-52
2023/03/06 10:12:22;;;;;;;2.38;1.50;;;;;;;7.27;100.00;100576.38;5031772;28;20029;-49
2023/03/06 10:15:15;;;;;;;5.47;2.88;;;;;;;7.10;100.00;100582.91;5031598;28;20049;-55
2023/03/06 10:17:41;;;;;;;5.80;3.53;;;;;;;6.81;100.00;100565.22;5012756;28;20471;-49
2023/03/06 10:20:23;;;;;;;6.15;3.47;;;;;;;6.76;100.00;100573.19;5048766;28;20056;-51
2023/03/06 10:23:30;;;;;;;4.18;3.50;;;;;;;6.67;100.00;100548.97;5034541;28;20117;-54
2023/03/06 10:26:01;;;;;;;5.32;3.15;;;;;;;6.50;100.00;100493.53;5033259;28;20319;-56
2023/03/06 10:28:52;;;;;;;4.43;2.40;;;;;;;7.00;100.00;100573.53;5031231;28;20563;-55
2023/03/06 10:31:19;;;;;;;;;;;;;;;7.25;100.00;100554.63;5031453;28;20083;-53
2023/03/06 10:34:05;;;;;;;3.97;2.67;;;;;;;7.55;100.00;100550.41;5046022;28;19908;-51
2023/03/06 10:36:31;;;;;;;2.53;1.95;;;;;;;7.76;100.00;100530.69;5029657;28;20038;-53
2023/03/06 10:38:57;;;;;;;4.43;2.33;;;;;;;8.33;100.00;100550.13;5031221;28;20037;-51
2023/03/06 10:41:26;;;;;;;6.38;2.60;;;;;;;8.93;100.00;100552.72;5035809;28;20540;-52
2023/03/06 10:44:03;;;;;;;3.15;2.35;;;;;;;9.22;100.00;100558.88;5031068;28;20040;-53
2023/03/06 10:46:38;;;;;;;3.22;2.70;;;;;;;9.09;100.00;100554.88;5030844;28;20071;-54
2023/03/06 10:49:22;;;;;;;5.20;3.88;;;;;;;8.58;100.00;100499.59;5029639;28;20037;-49
2023/03/06 10:51:59;;;;;;;4.07;3.53;;;;;;;8.86;100.00;100553.81;5030610;28;20055;-50
2023/03/06 10:54:26;;;;;;;5.10;3.40;;;;;;;8.60;100.00;100551.09;5030429;28;20064;-53
2023/03/06 10:56:51;;;;;;;4.50;3.00;;;;;;;8.56;100.00;100540.72;5030435;28;20030;-51
2023/03/06 10:59:24;;;;;;;7.35;3.97;;;;;;;8.23;100.00;100480.44;5045204;28;20028;-53
2023/03/06 11:01:52;;;;;;;4.80;4.30;;;;;;;8.32;100.00;100535.28;5042392;28;20396;-54
2023/03/06 11:04:22;;;;;;;8.93;4.20;;;;;;;8.32;100.00;100545.75;5034086;28;20480;-53
2023/03/06 11:07:15;;;;;;;6.57;5.30;;;;;;;8.20;100.00;100534.75;5047887;28;20101;-52
2023/03/06 11:09:57;;;;;;;7.18;5.85;;;;;;;8.11;100.00;100540.22;5053118;28;20472;-51
2023/03/06 11:12:25;;;;;;;7.63;5.70;;;;;;;7.92;100.00;100540.72;5054420;28;20029;-55
2023/03/06 11:15:09;;;;;;;9.38;6.93;;;;;;;7.82;100.00;100533.16;5040622;28;20037;-52
2023/03/06 11:17:56;;;;;;;8.82;5.63;;;;;;;7.68;100.00;100485.47;5053907;28;20029;-52
2023/03/06 11:20:32;;;;;;;6.18;5.57;;;;;;;8.14;100.00;100527.91;5053170;28;20126;-52
2023/03/06 11:23:11;;;;;;;7.88;5.50;;;;;;;8.20;100.00;100524.25;5053676;28;20369;-52
2023/03/06 11:25:43;;;;;;;6.57;5.10;;;;;;;8.21;100.00;100484.88;5052210;28;20461;-54
2023/03/06 11:28:14;;;;;;;6.97;4.97;;;;;;;8.82;100.00;100525.06;5054173;28;20036;-51